Time;durP1;ratioP1;P1;durP2;ratioP2;P2;SDS_P1;SDS_P2;PMS_P1;PMS_P2;Temp;Humidity;BMP_temperature;BMP_pressure;BME280_temperature;BME280_humidity;BME280_pressure;Samples;Min_cycle;Max_cycle;Signal;HPM_P1;HPM_P2
2023/05/13 05:13:38;;;;;;;8.98;8.07;;;9.40;99.90;;;;;;5298818;23;20503;-74
2023/05/13 05:16:05;;;;;;;8.23;7.43;;;9.40;99.90;;;;;;4974777;28;20211;-74
2023/05/13 05:18:32;;;;;;;7.28;6.57;;;9.40;99.90;;;;;;4974653;28;20293;-74
2023/05/13 05:20:59;;;;;;;8.15;6.80;;;9.50;99.90;;;;;;4974590;28;20227;-74
2023/05/13 05:23:25;;;;;;;9.57;8.18;;;9.50;99.90;;;;;;4974600;28;20224;-73
2023/05/13 05:25:52;;;;;;;8.55;7.75;;;9.50;99.90;;;;;;4975173;28;20203;-73
2023/05/13 05:28:19;;;;;;;8.18;7.28;;;9.50;99.90;;;;;;4974592;28;20240;-73
2023/05/13 05:30:47;;;;;;;9.40;7.60;;;9.50;99.90;;;;;;4974761;28;20204;-73
2023/05/13 05:33:13;;;;;;;8.52;7.72;;;9.50;99.90;;;;;;4974507;28;20231;-73
2023/05/13 05:35:40;;;;;;;8.75;7.85;;;9.50;99.90;;;;;;4974588;28;20207;-73
2023/05/13 05:38:08;;;;;;;8.40;7.70;;;9.50;99.90;;;;;;4974670;28;20214;-72
2023/05/13 05:40:35;;;;;;;9.77;8.77;;;9.50;99.90;;;;;;4974488;28;20235;-72
2023/05/13 05:43:02;;;;;;;8.88;7.97;;;9.60;99.90;;;;;;4974387;28;20223;-72
2023/05/13 05:45:29;;;;;;;7.55;6.70;;;9.60;99.90;;;;;;4974505;28;20254;-74
2023/05/13 05:47:57;;;;;;;7.70;7.10;;;9.70;99.90;;;;;;4976873;28;20733;-73
2023/05/13 05:50:23;;;;;;;9.70;7.05;;;9.60;99.90;;;;;;4978339;28;20225;-73
2023/05/13 05:52:50;;;;;;;6.55;6.05;;;9.70;99.90;;;;;;4978277;28;20219;-73
2023/05/13 05:55:17;;;;;;;7.80;7.03;;;9.80;99.90;;;;;;4978349;28;20211;-74
2023/05/13 05:57:43;;;;;;;7.18;6.57;;;9.90;99.90;;;;;;4978012;28;20254;-75
2023/05/13 06:00:11;;;;;;;5.90;5.50;;;10.00;99.90;;;;;;4977964;28;20601;-73
2023/05/13 06:02:38;;;;;;;5.72;5.32;;;10.10;99.90;;;;;;4977931;28;20313;-74
2023/05/13 06:05:08;;;;;;;5.40;5.00;;;10.20;99.90;;;;;;4978143;28;20310;-74
2023/05/13 06:07:34;;;;;;;6.38;5.85;;;10.30;99.90;;;;;;4978044;28;20204;-75
2023/05/13 06:10:01;;;;;;;6.40;5.90;;;10.30;99.90;;;;;;4978029;28;20203;-74
2023/05/13 06:12:28;;;;;;;6.82;6.05;;;10.30;99.90;;;;;;4977667;28;20614;-75
2023/05/13 06:14:55;;;;;;;6.82;5.78;;;10.30;99.90;;;;;;4977743;28;20262;-73
2023/05/13 06:17:21;;;;;;;5.50;5.10;;;10.30;99.90;;;;;;4977601;28;20550;-75
2023/05/13 06:19:48;;;;;;;5.32;5.03;;;10.40;99.90;;;;;;4979306;28;20218;-75
2023/05/13 06:22:16;;;;;;;4.45;4.15;;;10.40;99.90;;;;;;4978342;28;20238;-74
2023/05/13 06:24:43;;;;;;;4.10;3.80;;;10.50;99.90;;;;;;4977918;28;20206;-76
2023/05/13 06:27:10;;;;;;;5.25;4.95;;;10.50;99.90;;;;;;4977802;28;20701;-74
2023/05/13 06:29:37;;;;;;;5.97;5.47;;;10.60;99.90;;;;;;4977566;28;20207;-74
2023/05/13 06:32:04;;;;;;;4.78;4.47;;;10.50;99.90;;;;;;4977708;28;20199;-74
2023/05/13 06:34:31;;;;;;;5.03;4.72;;;10.50;99.90;;;;;;4977798;28;20259;-73
2023/05/13 06:36:58;;;;;;;5.55;5.05;;;10.50;99.90;;;;;;4977854;28;20211;-74
2023/05/13 06:39:26;;;;;;;5.90;5.50;;;10.50;99.90;;;;;;4977753;28;20203;-73
2023/05/13 06:41:52;;;;;;;5.65;5.25;;;10.50;99.90;;;;;;4977135;28;20219;-73
2023/05/13 06:44:19;;;;;;;8.52;6.47;;;10.40;99.90;;;;;;4977460;28;20234;-73
2023/05/13 06:46:46;;;;;;;6.93;6.32;;;10.40;99.90;;;;;;4977594;28;20247;-73
2023/05/13 06:49:12;;;;;;;7.32;6.72;;;10.30;99.90;;;;;;4977120;28;20671;-73
2023/05/13 06:51:39;;;;;;;6.93;6.43;;;10.30;99.90;;;;;;4977307;28;20235;-73
2023/05/13 06:54:06;;;;;;;6.68;6.18;;;10.20;99.90;;;;;;4978391;28;20223;-73
2023/05/13 06:56:34;;;;;;;6.82;6.32;;;10.20;99.90;;;;;;4977864;28;20270;-74
2023/05/13 06:59:01;;;;;;;7.05;6.50;;;10.20;99.90;;;;;;4976310;28;20203;-73
2023/05/13 07:01:27;;;;;;;8.60;7.85;;;10.30;99.90;;;;;;4976792;28;20223;-73
2023/05/13 07:03:54;;;;;;;7.53;6.93;;;10.40;99.90;;;;;;4977120;28;20231;-73
2023/05/13 07:06:21;;;;;;;6.90;6.32;;;10.40;99.90;;;;;;4977198;28;20212;-73
2023/05/13 07:08:48;;;;;;;6.68;6.18;;;10.50;99.90;;;;;;4977343;28;20243;-73
2023/05/13 07:11:15;;;;;;;6.50;5.90;;;10.50;99.90;;;;;;4977326;28;20199;-73
2023/05/13 07:13:43;;;;;;;5.97;5.47;;;10.40;99.90;;;;;;4976629;28;20571;-74
2023/05/13 07:16:10;;;;;;;6.15;5.65;;;10.50;99.90;;;;;;4976790;28;20622;-74
2023/05/13 07:18:36;;;;;;;5.82;5.43;;;10.50;99.90;;;;;;4976948;28;20242;-74
2023/05/13 07:21:03;;;;;;;5.18;4.88;;;10.40;99.90;;;;;;4976704;28;20203;-74
2023/05/13 07:23:30;;;;;;;4.93;4.63;;;10.30;99.90;;;;;;4976930;28;20326;-73
2023/05/13 07:25:57;;;;;;;5.60;5.20;;;10.40;99.90;;;;;;4976889;28;20348;-73
2023/05/13 07:28:24;;;;;;;5.30;4.93;;;10.40;99.90;;;;;;4976785;28;20250;-73
2023/05/13 07:30:52;;;;;;;4.57;4.28;;;10.50;99.90;;;;;;4976833;28;20207;-73
2023/05/13 07:33:19;;;;;;;4.72;4.43;;;10.50;99.90;;;;;;4976661;28;20710;-73
2023/05/13 07:35:45;;;;;;;4.43;4.00;;;10.60;99.90;;;;;;4977350;28;20203;-73
2023/05/13 07:38:12;;;;;;;4.07;3.88;;;10.70;99.90;;;;;;4976543;28;20210;-74
2023/05/13 07:40:39;;;;;;;3.22;3.13;;;10.80;99.90;;;;;;4976599;28;20251;-74
2023/05/13 07:43:06;;;;;;;3.35;3.25;;;10.90;99.90;;;;;;4976026;28;20229;-73
2023/05/13 07:45:33;;;;;;;3.60;3.45;;;11.00;99.90;;;;;;4976939;28;20298;-74
2023/05/13 07:48:01;;;;;;;3.45;3.25;;;11.20;99.90;;;;;;4977095;28;20207;-74
2023/05/13 07:50:28;;;;;;;3.40;3.20;;;11.20;99.90;;;;;;4976628;28;20207;-74
2023/05/13 07:52:55;;;;;;;3.63;3.45;;;11.20;99.90;;;;;;4976406;28;20246;-73
2023/05/13 07:55:22;;;;;;;3.03;2.85;;;11.20;99.90;;;;;;4976474;28;20214;-73
2023/05/13 07:57:48;;;;;;;3.38;3.22;;;11.30;99.90;;;;;;4976469;28;20230;-75
2023/05/13 08:00:16;;;;;;;3.10;3.00;;;11.20;99.90;;;;;;4976098;28;20203;-74
2023/05/13 08:02:43;;;;;;;3.10;3.00;;;11.30;99.90;;;;;;4976140;28;20254;-73
2023/05/13 08:05:11;;;;;;;2.92;2.78;;;11.40;99.90;;;;;;4976742;28;20199;-73
2023/05/13 08:07:38;;;;;;;2.83;2.72;;;11.50;99.90;;;;;;4975957;28;20199;-73
2023/05/13 08:10:05;;;;;;;3.42;3.20;;;11.50;99.90;;;;;;4976028;28;20211;-74
2023/05/13 08:12:32;;;;;;;2.80;2.70;;;11.60;99.90;;;;;;4976316;28;20255;-71
2023/05/13 08:14:59;;;;;;;3.10;2.90;;;11.70;99.90;;;;;;4975800;28;20219;-72
2023/05/13 08:17:25;;;;;;;2.70;2.50;;;11.70;99.90;;;;;;4975921;28;20297;-72
2023/05/13 08:19:52;;;;;;;3.22;2.90;;;11.70;99.90;;;;;;4975831;28;20211;-72
2023/05/13 08:22:20;;;;;;;2.50;2.40;;;11.80;99.90;;;;;;4975856;28;20230;-74
2023/05/13 08:24:47;;;;;;;2.67;2.55;;;11.80;99.90;;;;;;4975559;28;20580;-75
2023/05/13 08:27:13;;;;;;;3.22;3.03;;;11.80;99.90;;;;;;4975962;28;20214;-75
2023/05/13 08:29:40;;;;;;;3.15;3.00;;;11.80;99.90;;;;;;4975769;28;20262;-75
2023/05/13 08:32:07;;;;;;;3.00;2.90;;;11.80;99.90;;;;;;4975596;28;20202;-75
2023/05/13 08:34:33;;;;;;;3.05;2.95;;;11.90;99.90;;;;;;4975514;28;20251;-74
2023/05/13 08:37:01;;;;;;;3.65;3.45;;;11.80;99.90;;;;;;4975472;28;20215;-74
2023/05/13 08:39:29;;;;;;;3.15;3.05;;;11.80;99.90;;;;;;4975321;28;20211;-75
2023/05/13 08:41:57;;;;;;;3.38;3.17;;;11.70;99.90;;;;;;4974858;28;20714;-73
2023/05/13 08:44:27;;;;;;;2.63;2.53;;;11.60;99.90;;;;;;4975177;28;20203;-74
2023/05/13 08:47:04;;;;;;;3.35;3.15;;;11.60;99.90;;;;;;4975719;28;20184;-74
2023/05/13 08:49:31;;;;;;;3.08;2.97;;;11.70;99.90;;;;;;4977735;28;20191;-75
2023/05/13 08:51:58;;;;;;;2.80;2.70;;;11.60;99.90;;;;;;4978650;28;20203;-73
2023/05/13 08:54:26;;;;;;;2.92;2.72;;;11.70;99.90;;;;;;4979397;28;20171;-73
2023/05/13 08:56:54;;;;;;;2.67;2.58;;;11.80;99.90;;;;;;4979141;28;20622;-74
2023/05/13 08:59:21;;;;;;;2.72;2.63;;;12.00;99.90;;;;;;4977702;28;20207;-74
2023/05/13 09:01:49;;;;;;;2.47;2.30;;;12.20;99.90;;;;;;4979210;28;20203;-74
2023/05/13 09:04:17;;;;;;;2.88;2.78;;;12.20;99.90;;;;;;4980111;28;20235;-72
2023/05/13 09:06:47;;;;;;;2.70;2.60;;;12.10;99.90;;;;;;4977150;28;20671;-74
2023/05/13 09:09:14;;;;;;;2.92;2.72;;;12.00;99.90;;;;;;4976158;28;20207;-74
2023/05/13 09:11:41;;;;;;;3.03;2.92;;;11.90;99.90;;;;;;4977363;28;20203;-74
2023/05/13 09:14:10;;;;;;;3.75;3.28;;;11.80;99.90;;;;;;4976102;28;20722;-73
2023/05/13 09:16:38;;;;;;;3.10;3.00;;;12.00;99.90;;;;;;4975638;28;20225;-74
2023/05/13 09:19:06;;;;;;;3.25;3.05;;;12.10;99.90;;;;;;4977163;28;20207;-74
2023/05/13 09:21:35;;;;;;;2.97;2.88;;;12.30;99.90;;;;;;4977894;28;20207;-75
2023/05/13 09:24:09;;;;;;;3.78;3.47;;;12.40;99.90;;;;;;4978844;28;20635;-74
2023/05/13 09:26:37;;;;;;;3.38;3.17;;;12.60;99.90;;;;;;4974832;28;20209;-76
2023/05/13 09:29:19;;;;;;;3.97;3.67;;;12.70;99.90;;;;;;4980994;28;20203;-75
2023/05/13 09:31:48;;;;;;;3.50;3.30;;;13.00;99.90;;;;;;4977193;28;20294;-75
2023/05/13 09:34:23;;;;;;;3.42;3.25;;;13.20;99.90;;;;;;4977467;28;20227;-76
2023/05/13 09:36:56;;;;;;;3.35;3.05;;;13.40;99.90;;;;;;4977193;28;20191;-75
2023/05/13 09:39:23;;;;;;;2.83;2.47;;;13.60;99.90;;;;;;4978040;28;20191;-75
2023/05/13 09:41:49;;;;;;;2.58;2.47;;;13.80;99.90;;;;;;4976802;28;20206;-75
2023/05/13 09:44:17;;;;;;;4.93;2.38;;;14.00;99.90;;;;;;4977138;28;20230;-75
2023/05/13 09:46:44;;;;;;;2.50;2.40;;;14.00;99.90;;;;;;4977466;28;20205;-75
2023/05/13 09:49:11;;;;;;;2.90;2.70;;;14.20;99.90;;;;;;4976516;28;20259;-75
2023/05/13 09:51:38;;;;;;;2.42;2.10;;;14.40;99.90;;;;;;4976620;28;20207;-74
2023/05/13 09:54:05;;;;;;;2.50;2.40;;;14.50;99.90;;;;;;4976544;28;20223;-75
2023/05/13 09:56:34;;;;;;;2.40;2.30;;;14.40;99.90;;;;;;4974744;28;20798;-76
2023/05/13 09:59:01;;;;;;;2.08;1.98;;;14.30;99.90;;;;;;4974298;28;20552;-75
2023/05/13 10:01:30;;;;;;;2.70;2.50;;;14.40;99.90;;;;;;4974408;28;20242;-76
2023/05/13 10:03:58;;;;;;;2.97;2.78;;;14.40;99.90;;;;;;4974371;28;20223;-76
2023/05/13 10:06:26;;;;;;;2.70;2.60;;;14.60;99.90;;;;;;4974477;28;20238;-76
2023/05/13 10:08:55;;;;;;;2.80;2.70;;;14.60;99.90;;;;;;4974832;28;20207;-76
2023/05/13 10:11:24;;;;;;;2.40;2.30;;;14.60;99.90;;;;;;4974554;28;20242;-75
2023/05/13 10:13:55;;;;;;;2.28;2.17;;;14.30;99.90;;;;;;4974322;28;20232;-75
2023/05/13 10:16:23;;;;;;;2.17;2.08;;;14.20;99.90;;;;;;4974124;28;20222;-76
2023/05/13 10:18:52;;;;;;;2.40;2.30;;;14.10;99.90;;;;;;4974452;28;20199;-75
2023/05/13 10:21:19;;;;;;;2.88;2.78;;;14.10;99.90;;;;;;4974596;28;20672;-76
2023/05/13 10:23:47;;;;;;;3.03;2.83;;;14.10;99.90;;;;;;4974945;28;20227;-76
2023/05/13 10:26:14;;;;;;;5.28;2.67;;;13.80;99.90;;;;;;4974322;28;20214;-76
2023/05/13 10:28:42;;;;;;;2.92;2.72;;;13.60;99.90;;;;;;4974229;28;20199;-77
2023/05/13 10:31:09;;;;;;;3.53;2.95;;;13.60;99.90;;;;;;4974551;28;20199;-76
2023/05/13 10:33:36;;;;;;;2.67;2.58;;;13.50;99.90;;;;;;4975384;28;20247;-76
2023/05/13 10:36:20;;;;;;;3.72;3.38;;;13.40;99.90;;;;;;4980642;28;20540;-76
2023/05/13 10:39:06;;;;;;;2.80;2.63;;;13.30;99.90;;;;;;4982506;28;20211;-75
2023/05/13 10:42:08;;;;;;;3.42;3.22;;;13.30;99.90;;;;;;4979550;28;20222;-76
2023/05/13 10:44:36;;;;;;;3.17;2.90;;;13.40;99.90;;;;;;4982310;28;20206;-76
2023/05/13 10:47:03;;;;;;;3.05;2.95;;;13.50;99.90;;;;;;4981731;28;20580;-76
2023/05/13 10:49:34;;;;;;;4.53;4.22;;;13.60;99.90;;;;;;4981758;28;20610;-76
2023/05/13 10:52:09;;;;;;;3.83;3.42;;;13.60;99.90;;;;;;4982053;28;20639;-75
2023/05/13 10:54:39;;;;;;;3.50;3.30;;;13.60;99.90;;;;;;4983256;28;20197;-77
2023/05/13 10:57:24;;;;;;;4.28;3.78;;;13.60;99.90;;;;;;4983344;28;20266;-76
2023/05/13 11:00:13;;;;;;;4.78;4.38;;;13.70;99.90;;;;;;4980378;28;20206;-76
2023/05/13 11:02:40;;;;;;;3.92;3.65;;;13.80;99.90;;;;;;4977518;28;20651;-77
2023/05/13 11:05:08;;;;;;;4.65;4.35;;;13.70;99.90;;;;;;4976963;28;20243;-76
2023/05/13 11:07:39;;;;;;;5.50;5.03;;;13.70;99.90;;;;;;4976954;28;20290;-77
2023/05/13 11:10:26;;;;;;;4.65;4.25;;;13.60;99.90;;;;;;4977398;28;20184;-77
2023/05/13 11:13:19;;;;;;;4.90;4.60;;;13.50;99.90;;;;;;4977198;28;20282;-77
2023/05/13 11:15:49;;;;;;;4.10;3.80;;;13.30;99.90;;;;;;4977969;28;20207;-77
2023/05/13 11:18:16;;;;;;;5.07;4.55;;;13.30;99.90;;;;;;4979854;28;20666;-77
2023/05/13 11:20:46;;;;;;;5.72;4.30;;;13.20;99.90;;;;;;4979341;28;20203;-77
2023/05/13 11:23:18;;;;;;;4.70;4.30;;;13.50;99.90;;;;;;4976842;28;20227;-77
2023/05/13 11:25:45;;;;;;;5.38;4.47;;;13.60;99.90;;;;;;4976641;28;20643;-77
2023/05/13 11:28:17;;;;;;;3.85;3.65;;;13.70;99.90;;;;;;4976769;28;20211;-77
2023/05/13 11:30:53;;;;;;;4.22;3.97;;;13.70;99.90;;;;;;4977117;28;20187;-77
2023/05/13 11:33:20;;;;;;;4.90;4.50;;;14.00;99.90;;;;;;4986717;28;20282;-77
2023/05/13 11:35:54;;;;;;;4.38;4.07;;;14.20;99.90;;;;;;4979590;28;20203;-76
2023/05/13 11:38:25;;;;;;;4.32;4.05;;;14.20;99.90;;;;;;4976811;28;20269;-77
2023/05/13 11:40:56;;;;;;;4.32;4.03;;;14.00;99.90;;;;;;4976678;28;20218;-76
2023/05/13 11:43:23;;;;;;;5.05;4.68;;;13.80;99.90;;;;;;4982876;28;20255;-78
2023/05/13 11:45:52;;;;;;;5.28;4.28;;;13.70;99.90;;;;;;4986501;28;20195;-77
2023/05/13 11:48:19;;;;;;;4.47;4.18;;;13.50;99.90;;;;;;4977488;28;20211;-77
2023/05/13 11:50:46;;;;;;;4.00;3.70;;;13.40;99.90;;;;;;4978773;28;20211;-77
2023/05/13 11:53:21;;;;;;;4.47;4.07;;;13.20;99.90;;;;;;4980001;28;20215;-77
2023/05/13 11:55:49;;;;;;;6.00;4.70;;;13.10;99.90;;;;;;4979163;28;20195;-77
2023/05/13 11:58:16;;;;;;;4.78;4.47;;;13.10;99.90;;;;;;4979413;28;20203;-77
2023/05/13 12:00:42;;;;;;;5.15;4.70;;;13.00;99.90;;;;;;4981176;28;20294;-77
2023/05/13 12:03:11;;;;;;;5.35;4.68;;;13.20;99.90;;;;;;4978830;28;20255;-78
2023/05/13 12:05:37;;;;;;;3.92;3.70;;;13.30;99.90;;;;;;4978191;28;20215;-77
2023/05/13 12:08:06;;;;;;;4.75;4.38;;;13.40;99.90;;;;;;4977056;28;20563;-77
2023/05/13 12:10:33;;;;;;;4.78;4.38;;;13.50;99.90;;;;;;4975911;28;20203;-77
2023/05/13 12:13:01;;;;;;;4.85;4.38;;;13.70;99.90;;;;;;4976162;28;20230;-76
2023/05/13 12:15:28;;;;;;;4.43;4.13;;;13.70;99.90;;;;;;4977409;28;20637;-74
2023/05/13 12:17:56;;;;;;;3.78;3.55;;;13.80;99.90;;;;;;4977986;28;20207;-74
2023/05/13 12:20:24;;;;;;;3.67;3.38;;;13.80;99.90;;;;;;4978464;28;20253;-74
2023/05/13 12:22:53;;;;;;;3.35;2.90;;;13.90;99.90;;;;;;4977657;28;20215;-74
2023/05/13 12:25:49;;;;;;;2.92;2.78;;;13.80;99.90;;;;;;4977448;28;20671;-74
2023/05/13 12:28:19;;;;;;;3.67;3.38;;;13.70;99.90;;;;;;4954696;28;20623;-74
2023/05/13 12:30:51;;;;;;;4.13;3.92;;;13.80;99.90;;;;;;4979457;28;20207;-73
2023/05/13 12:33:19;;;;;;;3.35;3.15;;;14.00;99.90;;;;;;4977667;28;20254;-73
2023/05/13 12:35:48;;;;;;;2.95;2.80;;;14.30;99.90;;;;;;4977459;28;20254;-74
2023/05/13 12:38:18;;;;;;;3.97;2.92;;;14.60;99.90;;;;;;4977068;28;20226;-74
2023/05/13 12:40:45;;;;;;;3.45;3.25;;;14.70;99.90;;;;;;4977476;28;20206;-74
2023/05/13 12:43:12;;;;;;;3.90;3.60;;;14.70;99.90;;;;;;4977459;28;20713;-74
2023/05/13 12:45:43;;;;;;;4.25;3.70;;;14.80;99.90;;;;;;4976078;28;20211;-73
2023/05/13 12:48:10;;;;;;;2.92;2.72;;;14.70;99.90;;;;;;4975287;28;20250;-73
2023/05/13 12:50:37;;;;;;;3.25;3.05;;;14.70;99.90;;;;;;4975474;28;20210;-73
2023/05/13 12:53:04;;;;;;;3.63;3.40;;;14.70;99.90;;;;;;4975181;28;20226;-74
2023/05/13 12:55:31;;;;;;;3.58;3.28;;;14.50;99.90;;;;;;4975779;28;20302;-73
2023/05/13 12:58:00;;;;;;;3.20;3.00;;;14.20;99.90;;;;;;4974889;28;20242;-73
2023/05/13 13:00:27;;;;;;;3.22;3.03;;;14.10;99.90;;;;;;4975325;28;20226;-73
2023/05/13 13:02:55;;;;;;;2.95;2.75;;;14.00;99.90;;;;;;4975321;28;20227;-72
2023/05/13 13:05:25;;;;;;;3.63;3.30;;;14.00;99.90;;;;;;4977591;28;20203;-75
2023/05/13 13:07:52;;;;;;;3.10;2.90;;;13.70;99.90;;;;;;4978051;28;20195;-76
2023/05/13 13:10:20;;;;;;;2.80;2.60;;;13.60;99.90;;;;;;4978032;28;20257;-75
2023/05/13 13:12:48;;;;;;;2.83;2.60;;;13.60;99.90;;;;;;4978416;28;20273;-75
2023/05/13 13:15:15;;;;;;;3.28;3.00;;;13.60;99.90;;;;;;4977201;28;20208;-75
2023/05/13 13:17:44;;;;;;;3.55;3.25;;;13.70;99.90;;;;;;4977027;28;20204;-75
2023/05/13 13:20:13;;;;;;;3.40;3.08;;;13.50;99.90;;;;;;4978980;28;20267;-75
2023/05/13 13:22:40;;;;;;;3.63;3.22;;;13.30;99.90;;;;;;4978242;28;20239;-75
2023/05/13 13:25:08;;;;;;;4.03;3.70;;;13.30;99.90;;;;;;4977566;28;20683;-75
2023/05/13 13:27:35;;;;;;;3.22;3.03;;;13.20;99.90;;;;;;4978365;28;20208;-75
2023/05/13 13:30:03;;;;;;;4.80;3.75;;;13.00;99.90;;;;;;4977696;28;20207;-75
2023/05/13 13:32:30;;;;;;;5.97;3.75;;;12.90;99.90;;;;;;4978166;28;20278;-75
2023/05/13 13:34:58;;;;;;;7.22;4.88;;;12.80;99.90;;;;;;4974861;28;20223;-76
2023/05/13 13:37:26;;;;;;;7.57;4.82;;;12.70;99.90;;;;;;4974848;28;20199;-75
2023/05/13 13:39:53;;;;;;;6.90;4.10;;;12.70;99.90;;;;;;4974975;28;20291;-75
2023/05/13 13:42:20;;;;;;;4.15;3.70;;;12.70;99.90;;;;;;4975033;28;20227;-75
2023/05/13 13:44:47;;;;;;;4.47;4.07;;;12.70;99.90;;;;;;4974926;28;20235;-75
2023/05/13 13:47:14;;;;;;;4.40;4.00;;;12.80;99.90;;;;;;4974819;28;20202;-74
2023/05/13 13:49:41;;;;;;;3.10;2.90;;;12.70;99.90;;;;;;4975887;28;20207;-75
2023/05/13 13:52:09;;;;;;;3.83;3.53;;;12.60;99.90;;;;;;4975219;28;20203;-74
2023/05/13 13:54:37;;;;;;;3.67;3.47;;;12.70;99.90;;;;;;4974400;28;20694;-76
2023/05/13 13:57:04;;;;;;;4.70;4.30;;;12.60;99.90;;;;;;4974572;28;20210;-74
2023/05/13 13:59:31;;;;;;;5.00;4.32;;;12.70;99.90;;;;;;4974324;28;20614;-74
2023/05/13 14:01:58;;;;;;;4.60;4.20;;;12.70;99.90;;;;;;4974682;28;20194;-74
2023/05/13 14:04:26;;;;;;;4.15;3.85;;;12.60;99.90;;;;;;4974419;28;20255;-74
2023/05/13 14:06:54;;;;;;;4.35;4.05;;;12.60;99.90;;;;;;4974179;28;20718;-74
2023/05/13 14:09:21;;;;;;;3.50;3.30;;;12.50;99.90;;;;;;4977755;28;20203;-72
2023/05/13 14:11:49;;;;;;;3.63;3.42;;;12.50;99.90;;;;;;4978196;28;20206;-73
2023/05/13 14:14:15;;;;;;;4.55;4.22;;;12.50;99.90;;;;;;4978299;28;20215;-72
2023/05/13 14:16:42;;;;;;;4.07;3.78;;;12.60;99.90;;;;;;4977660;28;20238;-73
2023/05/13 14:19:10;;;;;;;10.63;3.90;;;12.60;99.90;;;;;;4978103;28;20212;-73
2023/05/13 14:21:37;;;;;;;3.85;3.40;;;12.70;99.90;;;;;;4977994;28;20207;-73
2023/05/13 14:24:04;;;;;;;3.40;3.22;;;12.70;99.90;;;;;;4977692;28;20231;-74
2023/05/13 14:26:31;;;;;;;5.55;3.60;;;12.70;99.90;;;;;;4977919;28;20234;-74
2023/05/13 14:28:59;;;;;;;4.82;4.50;;;12.70;99.90;;;;;;4978069;28;20229;-71
2023/05/13 14:31:26;;;;;;;3.92;3.70;;;12.60;99.90;;;;;;4977642;28;20247;-71
2023/05/13 14:33:52;;;;;;;3.95;3.65;;;12.70;99.90;;;;;;4977577;28;20626;-71
2023/05/13 14:36:21;;;;;;;4.55;4.20;;;12.70;99.90;;;;;;4978291;28;20203;-71
2023/05/13 14:38:48;;;;;;;3.28;3.08;;;12.60;99.90;;;;;;4977716;28;20207;-70
2023/05/13 14:41:18;;;;;;;4.88;4.43;;;12.70;99.90;;;;;;4978214;28;20203;-71
2023/05/13 14:43:45;;;;;;;4.30;3.92;;;12.60;99.90;;;;;;4977574;28;20330;-71
2023/05/13 14:46:13;;;;;;;3.63;3.33;;;12.60;99.90;;;;;;4978153;28;20240;-72
2023/05/13 14:48:40;;;;;;;3.45;3.33;;;12.40;99.90;;;;;;4977436;28;20214;-72
2023/05/13 14:51:07;;;;;;;3.80;3.60;;;12.30;99.90;;;;;;4978012;28;20204;-74
2023/05/13 14:53:33;;;;;;;4.97;4.40;;;12.10;99.90;;;;;;4977660;28;20223;-74
2023/05/13 14:56:00;;;;;;;4.13;3.90;;;12.00;99.90;;;;;;4978610;28;20195;-73
2023/05/13 14:58:27;;;;;;;4.72;4.22;;;11.90;99.90;;;;;;4977507;28;20230;-73
2023/05/13 15:00:54;;;;;;;5.00;4.60;;;11.80;99.90;;;;;;4977669;28;20199;-73
2023/05/13 15:03:22;;;;;;;5.07;3.97;;;11.70;99.90;;;;;;4977588;28;20282;-73
2023/05/13 15:05:49;;;;;;;4.80;4.50;;;11.70;99.90;;;;;;4977848;28;20223;-76
2023/05/13 15:08:16;;;;;;;4.82;4.43;;;11.70;99.90;;;;;;4977235;28;20203;-73
2023/05/13 15:10:43;;;;;;;4.75;4.45;;;11.70;99.90;;;;;;4977341;28;20238;-73
2023/05/13 15:13:09;;;;;;;5.00;4.60;;;11.60;99.90;;;;;;4976808;28;20706;-73
2023/05/13 15:15:36;;;;;;;4.38;4.07;;;11.60;99.90;;;;;;4977157;28;20207;-73
2023/05/13 15:18:03;;;;;;;4.30;4.00;;;11.60;99.90;;;;;;4976604;28;20250;-73
2023/05/13 15:20:31;;;;;;;5.05;4.75;;;11.50;99.90;;;;;;4976166;28;20200;-73
2023/05/13 15:22:57;;;;;;;6.03;5.53;;;11.50;99.90;;;;;;4976473;28;20778;-73
2023/05/13 15:25:24;;;;;;;5.10;4.72;;;11.40;99.90;;;;;;4976898;28;20220;-73
2023/05/13 15:27:51;;;;;;;4.88;4.57;;;11.50;99.90;;;;;;4977038;28;20561;-73
2023/05/13 15:30:18;;;;;;;5.38;5.05;;;11.50;99.90;;;;;;4976884;28;20614;-73
2023/05/13 15:32:45;;;;;;;6.43;5.60;;;11.50;99.90;;;;;;4976820;28;20231;-72
2023/05/13 15:35:11;;;;;;;7.70;6.70;;;11.50;99.90;;;;;;4976548;28;20199;-72
2023/05/13 15:37:41;;;;;;;7.18;5.88;;;11.50;99.90;;;;;;4976925;28;20203;-73
2023/05/13 15:40:09;;;;;;;7.88;7.00;;;11.50;99.90;;;;;;4976642;28;20184;-73
2023/05/13 15:42:35;;;;;;;6.63;6.13;;;11.50;99.90;;;;;;4976540;28;20314;-73
2023/05/13 15:45:02;;;;;;;6.20;5.55;;;11.40;99.90;;;;;;4976448;28;20220;-72
2023/05/13 15:47:29;;;;;;;7.45;6.57;;;11.40;99.90;;;;;;4976221;28;20548;-73
2023/05/13 15:49:55;;;;;;;7.65;6.95;;;11.30;99.90;;;;;;4976175;28;20203;-72
2023/05/13 15:52:22;;;;;;;6.70;6.10;;;11.30;99.90;;;;;;4975963;28;20733;-72
2023/05/13 15:54:50;;;;;;;6.95;6.25;;;11.20;99.90;;;;;;4976413;28;20207;-72
2023/05/13 15:57:18;;;;;;;7.80;7.00;;;11.20;99.90;;;;;;4976746;28;20215;-73
2023/05/13 15:59:44;;;;;;;7.25;6.63;;;11.20;99.90;;;;;;4976540;28;20203;-73
2023/05/13 16:02:11;;;;;;;7.80;7.00;;;11.10;99.90;;;;;;4975974;28;20214;-73
2023/05/13 16:04:38;;;;;;;7.15;6.63;;;11.10;99.90;;;;;;4976379;28;20234;-74
2023/05/13 16:07:09;;;;;;;7.10;6.50;;;11.10;99.90;;;;;;4976932;28;20206;-74
2023/05/13 16:09:36;;;;;;;9.07;7.05;;;11.10;99.90;;;;;;4976582;28;20188;-73
2023/05/13 16:12:05;;;;;;;8.60;7.80;;;11.10;99.90;;;;;;4976613;28;20205;-74
2023/05/13 16:14:31;;;;;;;7.32;6.63;;;11.00;99.90;;;;;;4976152;28;20249;-73
2023/05/13 16:16:59;;;;;;;8.57;7.78;;;11.10;99.90;;;;;;4976548;28;20555;-72
2023/05/13 16:19:26;;;;;;;7.53;6.82;;;11.10;99.90;;;;;;4976241;28;20231;-72
2023/05/13 16:21:53;;;;;;;7.03;6.43;;;11.20;99.90;;;;;;4977401;28;20207;-74
2023/05/13 16:24:19;;;;;;;7.28;6.68;;;11.30;99.90;;;;;;4976195;28;20593;-73
2023/05/13 16:26:47;;;;;;;10.38;9.48;;;11.30;99.90;;;;;;4975966;28;20205;-73
2023/05/13 16:29:15;;;;;;;8.10;7.40;;;11.50;99.90;;;;;;4975447;28;20294;-74
2023/05/13 16:31:41;;;;;;;7.93;7.22;;;11.40;99.90;;;;;;4974879;28;20203;-74
2023/05/13 16:34:08;;;;;;;7.70;7.07;;;11.40;99.90;;;;;;4975299;28;20227;-74
2023/05/13 16:36:35;;;;;;;8.60;7.88;;;11.30;99.90;;;;;;4976275;28;20701;-76
2023/05/13 16:39:01;;;;;;;7.53;6.93;;;11.40;99.90;;;;;;4976084;28;20207;-75
2023/05/13 16:41:28;;;;;;;6.45;5.95;;;11.30;99.90;;;;;;4975875;28;20663;-73
2023/05/13 16:43:55;;;;;;;7.13;6.43;;;11.30;99.90;;;;;;4977296;28;20226;-74
2023/05/13 16:46:23;;;;;;;7.07;6.32;;;11.30;99.90;;;;;;4976309;28;20234;-74
2023/05/13 16:48:49;;;;;;;5.47;5.10;;;11.30;99.90;;;;;;4976099;28;20210;-73
2023/05/13 16:51:16;;;;;;;6.75;6.25;;;11.30;99.90;;;;;;4976098;28;20207;-73
2023/05/13 16:53:43;;;;;;;5.85;5.35;;;11.20;99.90;;;;;;4976035;28;20227;-73
2023/05/13 16:56:09;;;;;;;5.18;4.65;;;11.20;99.90;;;;;;4976508;28;20196;-73
2023/05/13 16:58:36;;;;;;;6.15;5.68;;;11.30;99.90;;;;;;4976100;28;20203;-73
2023/05/13 17:01:03;;;;;;;5.68;5.13;;;11.20;99.90;;;;;;4976326;28;20239;-74
2023/05/13 17:03:31;;;;;;;5.97;5.47;;;11.20;99.90;;;;;;4976246;28;20268;-74
2023/05/13 17:05:58;;;;;;;5.18;4.82;;;11.10;99.90;;;;;;4976143;28;20312;-73
2023/05/13 17:08:24;;;;;;;5.88;5.38;;;11.10;99.90;;;;;;4975589;28;20211;-73
2023/05/13 17:10:51;;;;;;;4.90;4.60;;;11.10;99.90;;;;;;4975696;28;20207;-74
2023/05/13 17:13:18;;;;;;;6.00;5.53;;;11.00;99.90;;;;;;4975525;28;20227;-73
2023/05/13 17:15:46;;;;;;;6.78;5.30;;;11.10;99.90;;;;;;4975399;28;20705;-73
2023/05/13 17:18:13;;;;;;;4.97;4.65;;;11.00;99.90;;;;;;4976671;28;20245;-73
2023/05/13 17:20:42;;;;;;;5.35;4.95;;;11.10;99.90;;;;;;4975632;28;20199;-73
2023/05/13 17:23:09;;;;;;;4.28;4.00;;;11.00;99.90;;;;;;4975272;28;20222;-73
2023/05/13 17:25:36;;;;;;;4.30;4.10;;;11.00;99.90;;;;;;4975907;28;20224;-74
2023/05/13 17:28:02;;;;;;;5.28;4.88;;;11.00;99.90;;;;;;4976289;28;20207;-74
2023/05/13 17:30:29;;;;;;;4.72;4.43;;;10.90;99.90;;;;;;4975713;28;20675;-73
2023/05/13 17:32:56;;;;;;;3.97;3.78;;;10.90;99.90;;;;;;4976889;28;20608;-74
2023/05/13 17:35:22;;;;;;;4.18;3.97;;;10.90;99.90;;;;;;4976647;28;20208;-72
2023/05/13 17:37:50;;;;;;;3.97;3.75;;;10.90;99.90;;;;;;4975574;28;20203;-72
2023/05/13 17:40:17;;;;;;;4.72;4.43;;;10.90;99.90;;;;;;4975178;28;20204;-73
2023/05/13 17:42:44;;;;;;;4.93;4.57;;;10.80;99.90;;;;;;4975838;28;20227;-74
2023/05/13 17:45:11;;;;;;;4.38;4.18;;;10.80;99.90;;;;;;4978895;28;20219;-72
2023/05/13 17:47:37;;;;;;;4.35;4.05;;;10.80;99.90;;;;;;4978852;28;20215;-72
2023/05/13 17:50:05;;;;;;;4.18;3.97;;;10.80;99.90;;;;;;4978681;28;20203;-73
2023/05/13 17:52:32;;;;;;;4.55;4.25;;;10.70;99.90;;;;;;4978259;28;20286;-73
2023/05/13 17:55:00;;;;;;;4.68;4.32;;;10.70;99.90;;;;;;4978536;28;20207;-74
2023/05/13 17:57:27;;;;;;;3.92;3.67;;;10.70;99.90;;;;;;4978380;28;20203;-73
2023/05/13 17:59:54;;;;;;;3.90;3.72;;;10.70;99.90;;;;;;4978094;28;20207;-73
2023/05/13 18:02:20;;;;;;;3.75;3.55;;;10.70;99.90;;;;;;4978085;28;20227;-73
2023/05/13 18:04:47;;;;;;;4.30;3.95;;;10.70;99.90;;;;;;4977981;28;20695;-73